sensor_id;sensor_type;location;lat;lon;timestamp;temperature;humidity
67974;DHT22;54756;51.140;6.952;2023-09-19T00:01:55;18.30;99.90
67974;DHT22;54756;51.140;6.952;2023-09-19T00:03:57;18.20;99.90
67974;DHT22;54756;51.140;6.952;2023-09-19T00:05:58;18.20;99.90
67974;DHT22;54756;51.140;6.952;2023-09-19T00:08:01;18.20;99.90
67974;DHT22;54756;51.140;6.952;2023-09-19T00:10:04;18.20;99.90
67974;DHT22;54756;51.140;6.952;2023-09-19T00:12:06;18.20;99.90
67974;DHT22;54756;51.140;6.952;2023-09-19T00:14:09;18.20;99.90
67974;DHT22;54756;51.140;6.952;2023-09-19T00:16:10;18.20;99.90
67974;DHT22;54756;51.140;6.952;2023-09-19T00:18:11;18.20;99.90
67974;DHT22;54756;51.140;6.952;2023-09-19T00:20:13;18.20;99.90
67974;DHT22;54756;51.140;6.952;2023-09-19T00:22:16;18.10;99.90
67974;DHT22;54756;51.140;6.952;2023-09-19T00:24:16;18.10;99.90
67974;DHT22;54756;51.140;6.952;2023-09-19T00:26:17;18.10;99.90
67974;DHT22;54756;51.140;6.952;2023-09-19T00:28:18;18.00;99.90
67974;DHT22;54756;51.140;6.952;2023-09-19T00:30:20;18.00;99.90
67974;DHT22;54756;51.140;6.952;2023-09-19T00:32:21;18.00;99.90
67974;DHT22;54756;51.140;6.952;2023-09-19T00:34:21;18.00;99.90
67974;DHT22;54756;51.140;6.952;2023-09-19T00:36:22;18.00;99.90
67974;DHT22;54756;51.140;6.952;2023-09-19T00:38:23;18.00;99.90
67974;DHT22;54756;51.140;6.952;2023-09-19T00:40:27;18.00;99.90
67974;DHT22;54756;51.140;6.952;2023-09-19T00:42:28;18.00;99.90
67974;DHT22;54756;51.140;6.952;2023-09-19T00:44:28;18.00;99.90
67974;DHT22;54756;51.140;6.952;2023-09-19T00:46:30;18.00;99.90
67974;DHT22;54756;51.140;6.952;2023-09-19T00:48:30;18.00;99.90
67974;DHT22;54756;51.140;6.952;2023-09-19T00:50:31;18.00;99.90
67974;DHT22;54756;51.140;6.952;2023-09-19T00:52:33;17.90;99.90
67974;DHT22;54756;51.140;6.952;2023-09-19T00:54:34;17.90;99.90
67974;DHT22;54756;51.140;6.952;2023-09-19T00:56:35;17.90;99.90
67974;DHT22;54756;51.140;6.952;2023-09-19T00:58:38;17.90;99.90
67974;DHT22;54756;51.140;6.952;2023-09-19T01:00:40;17.80;99.90
67974;DHT22;54756;51.140;6.952;2023-09-19T01:02:41;17.80;99.90
67974;DHT22;54756;51.140;6.952;2023-09-19T01:04:43;17.80;99.90
67974;DHT22;54756;51.140;6.952;2023-09-19T01:06:44;17.80;99.90
67974;DHT22;54756;51.140;6.952;2023-09-19T01:08:46;17.80;99.90
67974;DHT22;54756;51.140;6.952;2023-09-19T01:11:17;17.80;99.90
67974;DHT22;54756;51.140;6.952;2023-09-19T01:14:02;17.80;99.90
67974;DHT22;54756;51.140;6.952;2023-09-19T01:20:51;17.80;99.90
67974;DHT22;54756;51.140;6.952;2023-09-19T01:23:39;17.80;99.90
67974;DHT22;54756;51.140;6.952;2023-09-19T01:26:17;17.80;99.90
67974;DHT22;54756;51.140;6.952;2023-09-19T01:30:43;17.80;99.90
67974;DHT22;54756;51.140;6.952;2023-09-19T01:32:44;17.90;99.90
67974;DHT22;54756;51.140;6.952;2023-09-19T01:34:56;17.90;99.90
67974;DHT22;54756;51.140;6.952;2023-09-19T01:37:04;17.90;99.90
67974;DHT22;54756;51.140;6.952;2023-09-19T01:39:09;18.00;99.90
67974;DHT22;54756;51.140;6.952;2023-09-19T01:41:12;18.00;99.90
67974;DHT22;54756;51.140;6.952;2023-09-19T01:43:21;18.00;99.90
67974;DHT22;54756;51.140;6.952;2023-09-19T01:45:37;18.00;99.90
67974;DHT22;54756;51.140;6.952;2023-09-19T01:47:50;18.10;99.90
67974;DHT22;54756;51.140;6.952;2023-09-19T01:49:55;18.00;99.90
67974;DHT22;54756;51.140;6.952;2023-09-19T01:52:02;18.00;99.90
67974;DHT22;54756;51.140;6.952;2023-09-19T01:54:09;18.00;99.90
67974;DHT22;54756;51.140;6.952;2023-09-19T01:56:19;18.00;99.90
67974;DHT22;54756;51.140;6.952;2023-09-19T01:58:33;18.00;99.90
67974;DHT22;54756;51.140;6.952;2023-09-19T02:00:37;17.90;99.90
67974;DHT22;54756;51.140;6.952;2023-09-19T02:02:42;17.90;99.90
67974;DHT22;54756;51.140;6.952;2023-09-19T02:04:44;17.90;99.90
67974;DHT22;54756;51.140;6.952;2023-09-19T02:06:45;17.90;99.90
67974;DHT22;54756;51.140;6.952;2023-09-19T02:08:47;17.90;99.90
67974;DHT22;54756;51.140;6.952;2023-09-19T02:10:49;17.90;99.90
67974;DHT22;54756;51.140;6.952;2023-09-19T02:12:50;17.90;99.90
67974;DHT22;54756;51.140;6.952;2023-09-19T02:14:51;17.90;99.90
67974;DHT22;54756;51.140;6.952;2023-09-19T02:16:51;17.90;99.90
67974;DHT22;54756;51.140;6.952;2023-09-19T02:18:52;17.90;99.90
67974;DHT22;54756;51.140;6.952;2023-09-19T02:20:53;17.80;99.90
67974;DHT22;54756;51.140;6.952;2023-09-19T02:22:54;17.80;99.90
67974;DHT22;54756;51.140;6.952;2023-09-19T02:24:55;17.80;99.90
67974;DHT22;54756;51.140;6.952;2023-09-19T02:26:58;17.80;99.90
67974;DHT22;54756;51.140;6.952;2023-09-19T02:29:04;17.80;99.90
67974;DHT22;54756;51.140;6.952;2023-09-19T02:31:05;17.80;99.90
67974;DHT22;54756;51.140;6.952;2023-09-19T02:33:06;17.80;99.90
67974;DHT22;54756;51.140;6.952;2023-09-19T02:35:07;17.90;99.90
67974;DHT22;54756;51.140;6.952;2023-09-19T02:37:08;17.90;99.90
67974;DHT22;54756;51.140;6.952;2023-09-19T02:39:13;17.80;99.90
67974;DHT22;54756;51.140;6.952;2023-09-19T02:41:14;17.80;99.90
67974;DHT22;54756;51.140;6.952;2023-09-19T02:43:14;17.80;99.90
67974;DHT22;54756;51.140;6.952;2023-09-19T02:45:18;17.80;99.90
67974;DHT22;54756;51.140;6.952;2023-09-19T02:47:19;17.80;99.90
67974;DHT22;54756;51.140;6.952;2023-09-19T02:49:20;17.70;99.90
67974;DHT22;54756;51.140;6.952;2023-09-19T02:51:20;17.70;99.90
67974;DHT22;54756;51.140;6.952;2023-09-19T02:53:21;17.70;99.90
67974;DHT22;54756;51.140;6.952;2023-09-19T02:55:22;17.70;99.90
67974;DHT22;54756;51.140;6.952;2023-09-19T02:57:23;17.70;99.90
67974;DHT22;54756;51.140;6.952;2023-09-19T02:59:24;17.70;99.90
67974;DHT22;54756;51.140;6.952;2023-09-19T03:01:25;17.70;99.90
67974;DHT22;54756;51.140;6.952;2023-09-19T03:03:27;17.70;99.90
67974;DHT22;54756;51.140;6.952;2023-09-19T03:05:29;17.70;99.90
67974;DHT22;54756;51.140;6.952;2023-09-19T03:07:31;17.60;99.90
67974;DHT22;54756;51.140;6.952;2023-09-19T03:09:31;17.60;99.90
67974;DHT22;54756;51.140;6.952;2023-09-19T03:11:32;17.60;99.90
67974;DHT22;54756;51.140;6.952;2023-09-19T03:13:33;17.50;99.90
67974;DHT22;54756;51.140;6.952;2023-09-19T03:15:34;17.50;99.90
67974;DHT22;54756;51.140;6.952;2023-09-19T03:17:35;17.50;99.90
67974;DHT22;54756;51.140;6.952;2023-09-19T03:19:36;17.50;99.90
67974;DHT22;54756;51.140;6.952;2023-09-19T03:21:39;17.50;99.90
67974;DHT22;54756;51.140;6.952;2023-09-19T03:23:40;17.40;99.90
67974;DHT22;54756;51.140;6.952;2023-09-19T03:25:41;17.40;99.90
67974;DHT22;54756;51.140;6.952;2023-09-19T03:27:41;17.40;99.90
67974;DHT22;54756;51.140;6.952;2023-09-19T03:29:42;17.40;99.90
67974;DHT22;54756;51.140;6.952;2023-09-19T03:31:43;17.30;99.90
67974;DHT22;54756;51.140;6.952;2023-09-19T03:33:44;17.30;99.90
67974;DHT22;54756;51.140;6.952;2023-09-19T03:35:52;17.30;99.90
67974;DHT22;54756;51.140;6.952;2023-09-19T03:37:53;17.20;99.90
67974;DHT22;54756;51.140;6.952;2023-09-19T03:39:54;17.20;99.90
67974;DHT22;54756;51.140;6.952;2023-09-19T03:41:54;17.20;99.90
67974;DHT22;54756;51.140;6.952;2023-09-19T03:43:56;17.10;99.90
67974;DHT22;54756;51.140;6.952;2023-09-19T03:45:56;17.10;99.90
67974;DHT22;54756;51.140;6.952;2023-09-19T03:47:57;17.10;99.90
67974;DHT22;54756;51.140;6.952;2023-09-19T03:49:58;17.00;99.90
67974;DHT22;54756;51.140;6.952;2023-09-19T03:51:59;17.00;99.90
67974;DHT22;54756;51.140;6.952;2023-09-19T03:53:59;17.00;99.90
67974;DHT22;54756;51.140;6.952;2023-09-19T03:56:00;17.00;99.90
67974;DHT22;54756;51.140;6.952;2023-09-19T03:58:02;16.90;99.90
67974;DHT22;54756;51.140;6.952;2023-09-19T04:00:04;16.90;99.90
67974;DHT22;54756;51.140;6.952;2023-09-19T04:02:15;16.90;99.90
67974;DHT22;54756;51.140;6.952;2023-09-19T04:04:22;16.90;99.90
67974;DHT22;54756;51.140;6.952;2023-09-19T04:06:25;16.90;99.90
67974;DHT22;54756;51.140;6.952;2023-09-19T04:08:27;16.80;99.90
67974;DHT22;54756;51.140;6.952;2023-09-19T04:10:28;16.80;99.90
67974;DHT22;54756;51.140;6.952;2023-09-19T04:12:28;16.80;99.90
67974;DHT22;54756;51.140;6.952;2023-09-19T04:14:29;16.80;99.90
67974;DHT22;54756;51.140;6.952;2023-09-19T04:16:30;16.80;99.90
67974;DHT22;54756;51.140;6.952;2023-09-19T04:18:31;16.70;99.90
67974;DHT22;54756;51.140;6.952;2023-09-19T04:20:33;16.70;99.90
67974;DHT22;54756;51.140;6.952;2023-09-19T04:22:34;16.80;99.90
67974;DHT22;54756;51.140;6.952;2023-09-19T04:24:34;16.80;99.90
67974;DHT22;54756;51.140;6.952;2023-09-19T04:26:35;16.70;99.90
67974;DHT22;54756;51.140;6.952;2023-09-19T04:28:37;16.80;99.90
67974;DHT22;54756;51.140;6.952;2023-09-19T04:30:38;16.70;99.90
67974;DHT22;54756;51.140;6.952;2023-09-19T04:32:42;16.70;99.90
67974;DHT22;54756;51.140;6.952;2023-09-19T04:34:42;16.70;99.90
67974;DHT22;54756;51.140;6.952;2023-09-19T04:36:43;16.70;99.90
67974;DHT22;54756;51.140;6.952;2023-09-19T04:38:44;16.70;99.90
67974;DHT22;54756;51.140;6.952;2023-09-19T04:40:45;16.70;99.90
67974;DHT22;54756;51.140;6.952;2023-09-19T04:42:53;16.70;99.90
67974;DHT22;54756;51.140;6.952;2023-09-19T04:44:56;16.70;99.90
67974;DHT22;54756;51.140;6.952;2023-09-19T04:46:57;16.70;99.90
67974;DHT22;54756;51.140;6.952;2023-09-19T04:48:57;16.70;99.90
67974;DHT22;54756;51.140;6.952;2023-09-19T04:50:58;16.60;99.90
67974;DHT22;54756;51.140;6.952;2023-09-19T04:53:00;16.60;99.90
67974;DHT22;54756;51.140;6.952;2023-09-19T04:55:01;16.60;99.90
67974;DHT22;54756;51.140;6.952;2023-09-19T04:57:02;16.60;99.90
67974;DHT22;54756;51.140;6.952;2023-09-19T04:59:03;16.60;99.90
67974;DHT22;54756;51.140;6.952;2023-09-19T05:01:05;16.60;99.90
67974;DHT22;54756;51.140;6.952;2023-09-19T05:03:06;16.60;99.90
67974;DHT22;54756;51.140;6.952;2023-09-19T05:05:07;16.60;99.90
67974;DHT22;54756;51.140;6.952;2023-09-19T05:07:08;16.60;99.90
67974;DHT22;54756;51.140;6.952;2023-09-19T05:09:09;16.60;99.90
67974;DHT22;54756;51.140;6.952;2023-09-19T05:11:10;16.60;99.90
67974;DHT22;54756;51.140;6.952;2023-09-19T05:13:10;16.50;99.90
67974;DHT22;54756;51.140;6.952;2023-09-19T05:15:12;16.50;99.90
67974;DHT22;54756;51.140;6.952;2023-09-19T05:17:15;16.50;99.90
67974;DHT22;54756;51.140;6.952;2023-09-19T05:19:17;16.50;99.90
67974;DHT22;54756;51.140;6.952;2023-09-19T05:21:17;16.50;99.90
67974;DHT22;54756;51.140;6.952;2023-09-19T05:23:19;16.50;99.90
67974;DHT22;54756;51.140;6.952;2023-09-19T05:25:21;16.50;99.90
67974;DHT22;54756;51.140;6.952;2023-09-19T05:27:22;16.50;99.90
67974;DHT22;54756;51.140;6.952;2023-09-19T05:29:23;16.50;99.90
67974;DHT22;54756;51.140;6.952;2023-09-19T05:31:23;16.40;99.90
67974;DHT22;54756;51.140;6.952;2023-09-19T05:33:26;16.40;99.90
67974;DHT22;54756;51.140;6.952;2023-09-19T05:35:27;16.40;99.90
67974;DHT22;54756;51.140;6.952;2023-09-19T05:37:27;16.40;99.90
67974;DHT22;54756;51.140;6.952;2023-09-19T05:39:28;16.40;99.90
67974;DHT22;54756;51.140;6.952;2023-09-19T05:41:28;16.40;99.90
67974;DHT22;54756;51.140;6.952;2023-09-19T05:43:29;16.40;99.90
67974;DHT22;54756;51.140;6.952;2023-09-19T05:45:29;16.50;99.90
67974;DHT22;54756;51.140;6.952;2023-09-19T05:47:31;16.50;99.90
67974;DHT22;54756;51.140;6.952;2023-09-19T05:49:31;16.50;99.90
67974;DHT22;54756;51.140;6.952;2023-09-19T05:51:32;16.50;99.90
67974;DHT22;54756;51.140;6.952;2023-09-19T05:53:32;16.50;99.90
67974;DHT22;54756;51.140;6.952;2023-09-19T05:55:33;16.50;99.90
67974;DHT22;54756;51.140;6.952;2023-09-19T05:57:37;16.50;99.90
67974;DHT22;54756;51.140;6.952;2023-09-19T05:59:42;16.50;99.90
67974;DHT22;54756;51.140;6.952;2023-09-19T06:01:43;16.50;99.90
67974;DHT22;54756;51.140;6.952;2023-09-19T06:03:44;16.50;99.90
67974;DHT22;54756;51.140;6.952;2023-09-19T06:05:44;16.50;99.90
67974;DHT22;54756;51.140;6.952;2023-09-19T06:07:46;16.50;99.90
67974;DHT22;54756;51.140;6.952;2023-09-19T06:09:47;16.50;99.90
67974;DHT22;54756;51.140;6.952;2023-09-19T06:11:48;16.50;99.90
67974;DHT22;54756;51.140;6.952;2023-09-19T06:13:48;16.40;99.90
67974;DHT22;54756;51.140;6.952;2023-09-19T06:15:49;16.50;99.90
67974;DHT22;54756;51.140;6.952;2023-09-19T06:17:55;16.50;99.90
67974;DHT22;54756;51.140;6.952;2023-09-19T06:19:55;16.50;99.90
67974;DHT22;54756;51.140;6.952;2023-09-19T06:21:56;16.40;99.90
67974;DHT22;54756;51.140;6.952;2023-09-19T06:23:57;16.50;99.90
67974;DHT22;54756;51.140;6.952;2023-09-19T06:25:58;16.50;99.90
67974;DHT22;54756;51.140;6.952;2023-09-19T06:27:58;16.50;99.90
67974;DHT22;54756;51.140;6.952;2023-09-19T06:29:59;16.50;99.90
67974;DHT22;54756;51.140;6.952;2023-09-19T06:31:59;16.60;99.90
67974;DHT22;54756;51.140;6.952;2023-09-19T06:34:01;16.60;99.90
67974;DHT22;54756;51.140;6.952;2023-09-19T06:36:03;16.60;99.90
67974;DHT22;54756;51.140;6.952;2023-09-19T06:38:05;16.60;99.90
67974;DHT22;54756;51.140;6.952;2023-09-19T06:40:13;16.60;99.90
67974;DHT22;54756;51.140;6.952;2023-09-19T06:42:14;16.60;99.90
67974;DHT22;54756;51.140;6.952;2023-09-19T06:44:17;16.60;99.90
67974;DHT22;54756;51.140;6.952;2023-09-19T06:46:18;16.60;99.90
67974;DHT22;54756;51.140;6.952;2023-09-19T06:48:19;16.60;99.90
67974;DHT22;54756;51.140;6.952;2023-09-19T06:50:21;16.60;99.90
67974;DHT22;54756;51.140;6.952;2023-09-19T06:52:25;16.70;99.90
67974;DHT22;54756;51.140;6.952;2023-09-19T06:54:28;16.60;99.90
67974;DHT22;54756;51.140;6.952;2023-09-19T06:56:34;16.60;99.90
67974;DHT22;54756;51.140;6.952;2023-09-19T06:58:35;16.60;99.90
67974;DHT22;54756;51.140;6.952;2023-09-19T07:00:37;16.60;99.90
67974;DHT22;54756;51.140;6.952;2023-09-19T07:02:38;16.60;99.90
67974;DHT22;54756;51.140;6.952;2023-09-19T07:04:41;16.70;99.90
67974;DHT22;54756;51.140;6.952;2023-09-19T07:06:42;16.70;99.90
67974;DHT22;54756;51.140;6.952;2023-09-19T07:08:43;16.60;99.90
67974;DHT22;54756;51.140;6.952;2023-09-19T07:10:43;16.70;99.90
67974;DHT22;54756;51.140;6.952;2023-09-19T07:12:54;16.70;99.90
67974;DHT22;54756;51.140;6.952;2023-09-19T07:14:55;16.70;99.90
67974;DHT22;54756;51.140;6.952;2023-09-19T07:16:55;16.80;99.90
67974;DHT22;54756;51.140;6.952;2023-09-19T07:18:56;16.80;99.90
67974;DHT22;54756;51.140;6.952;2023-09-19T07:20:58;16.80;99.90
67974;DHT22;54756;51.140;6.952;2023-09-19T07:23:05;16.80;99.90
67974;DHT22;54756;51.140;6.952;2023-09-19T07:25:06;16.80;99.90
67974;DHT22;54756;51.140;6.952;2023-09-19T07:27:07;16.90;99.90
67974;DHT22;54756;51.140;6.952;2023-09-19T07:29:09;16.90;99.90
67974;DHT22;54756;51.140;6.952;2023-09-19T07:31:09;16.90;99.90
67974;DHT22;54756;51.140;6.952;2023-09-19T07:33:10;16.90;99.90
67974;DHT22;54756;51.140;6.952;2023-09-19T07:35:11;16.90;99.90
67974;DHT22;54756;51.140;6.952;2023-09-19T07:37:12;16.90;99.90
67974;DHT22;54756;51.140;6.952;2023-09-19T07:39:16;16.90;99.90
67974;DHT22;54756;51.140;6.952;2023-09-19T07:41:16;16.90;99.90
67974;DHT22;54756;51.140;6.952;2023-09-19T07:43:17;16.90;99.90
67974;DHT22;54756;51.140;6.952;2023-09-19T07:45:18;16.90;99.90
67974;DHT22;54756;51.140;6.952;2023-09-19T07:47:19;16.90;99.90
67974;DHT22;54756;51.140;6.952;2023-09-19T07:49:21;16.90;99.90
67974;DHT22;54756;51.140;6.952;2023-09-19T07:51:22;16.90;99.90
67974;DHT22;54756;51.140;6.952;2023-09-19T07:53:22;17.00;99.90
67974;DHT22;54756;51.140;6.952;2023-09-19T07:55:23;17.00;99.90
67974;DHT22;54756;51.140;6.952;2023-09-19T07:57:25;17.00;99.90
67974;DHT22;54756;51.140;6.952;2023-09-19T07:59:26;17.00;99.90
67974;DHT22;54756;51.140;6.952;2023-09-19T08:01:27;17.00;99.90
67974;DHT22;54756;51.140;6.952;2023-09-19T08:03:28;17.00;99.90
67974;DHT22;54756;51.140;6.952;2023-09-19T08:05:28;17.00;99.90
67974;DHT22;54756;51.140;6.952;2023-09-19T08:07:29;17.10;99.90
67974;DHT22;54756;51.140;6.952;2023-09-19T08:09:29;17.10;99.90
67974;DHT22;54756;51.140;6.952;2023-09-19T08:11:33;17.10;99.90
67974;DHT22;54756;51.140;6.952;2023-09-19T08:13:34;17.10;99.90
67974;DHT22;54756;51.140;6.952;2023-09-19T08:15:34;17.20;99.90
67974;DHT22;54756;51.140;6.952;2023-09-19T08:17:35;17.20;99.90
67974;DHT22;54756;51.140;6.952;2023-09-19T08:19:36;17.20;99.90
67974;DHT22;54756;51.140;6.952;2023-09-19T08:21:36;17.20;99.90
67974;DHT22;54756;51.140;6.952;2023-09-19T08:23:37;17.30;99.90
67974;DHT22;54756;51.140;6.952;2023-09-19T08:25:41;17.30;99.90
67974;DHT22;54756;51.140;6.952;2023-09-19T08:27:42;17.30;99.90
67974;DHT22;54756;51.140;6.952;2023-09-19T08:29:46;17.30;99.90
67974;DHT22;54756;51.140;6.952;2023-09-19T08:31:47;17.40;99.90
67974;DHT22;54756;51.140;6.952;2023-09-19T08:33:51;17.40;99.90
67974;DHT22;54756;51.140;6.952;2023-09-19T08:35:55;17.50;99.90
67974;DHT22;54756;51.140;6.952;2023-09-19T08:37:56;17.50;99.90
67974;DHT22;54756;51.140;6.952;2023-09-19T08:39:57;17.50;99.90
67974;DHT22;54756;51.140;6.952;2023-09-19T08:41:59;17.60;99.90
67974;DHT22;54756;51.140;6.952;2023-09-19T08:43:59;17.60;99.90
67974;DHT22;54756;51.140;6.952;2023-09-19T08:46:15;17.60;99.90
67974;DHT22;54756;51.140;6.952;2023-09-19T08:48:22;17.60;99.90
67974;DHT22;54756;51.140;6.952;2023-09-19T08:50:28;17.60;99.90
67974;DHT22;54756;51.140;6.952;2023-09-19T08:52:34;17.70;99.90
67974;DHT22;54756;51.140;6.952;2023-09-19T08:54:38;17.70;99.90
67974;DHT22;54756;51.140;6.952;2023-09-19T08:56:41;17.70;99.90
67974;DHT22;54756;51.140;6.952;2023-09-19T08:58:48;17.70;99.90
67974;DHT22;54756;51.140;6.952;2023-09-19T09:00:50;17.70;99.90
67974;DHT22;54756;51.140;6.952;2023-09-19T09:02:53;17.80;99.90
67974;DHT22;54756;51.140;6.952;2023-09-19T09:04:55;17.70;99.90
67974;DHT22;54756;51.140;6.952;2023-09-19T09:06:57;17.80;99.90
67974;DHT22;54756;51.140;6.952;2023-09-19T09:08:58;17.80;99.90
67974;DHT22;54756;51.140;6.952;2023-09-19T09:10:59;17.80;99.90
67974;DHT22;54756;51.140;6.952;2023-09-19T09:13:00;17.80;99.90
67974;DHT22;54756;51.140;6.952;2023-09-19T09:15:01;17.90;99.90
67974;DHT22;54756;51.140;6.952;2023-09-19T09:17:04;17.90;99.90
67974;DHT22;54756;51.140;6.952;2023-09-19T09:19:04;17.90;99.90
67974;DHT22;54756;51.140;6.952;2023-09-19T09:21:05;17.90;99.90
67974;DHT22;54756;51.140;6.952;2023-09-19T09:23:06;18.00;99.90
67974;DHT22;54756;51.140;6.952;2023-09-19T09:25:07;18.10;99.90
67974;DHT22;54756;51.140;6.952;2023-09-19T09:27:12;18.10;99.90
67974;DHT22;54756;51.140;6.952;2023-09-19T09:29:13;18.10;99.90
67974;DHT22;54756;51.140;6.952;2023-09-19T09:31:24;18.10;99.90
67974;DHT22;54756;51.140;6.952;2023-09-19T09:33:25;18.10;99.90
67974;DHT22;54756;51.140;6.952;2023-09-19T09:35:26;18.20;99.90
67974;DHT22;54756;51.140;6.952;2023-09-19T09:37:28;18.20;99.90
67974;DHT22;54756;51.140;6.952;2023-09-19T09:39:31;18.20;99.90
67974;DHT22;54756;51.140;6.952;2023-09-19T09:41:38;18.30;99.90
67974;DHT22;54756;51.140;6.952;2023-09-19T09:43:40;18.30;99.90
67974;DHT22;54756;51.140;6.952;2023-09-19T09:45:42;18.40;99.90
67974;DHT22;54756;51.140;6.952;2023-09-19T09:47:49;18.40;99.90
67974;DHT22;54756;51.140;6.952;2023-09-19T09:49:58;18.40;99.90
67974;DHT22;54756;51.140;6.952;2023-09-19T09:52:07;18.50;99.90
67974;DHT22;54756;51.140;6.952;2023-09-19T09:54:18;18.50;99.90
67974;DHT22;54756;51.140;6.952;2023-09-19T09:56:20;18.60;99.90
67974;DHT22;54756;51.140;6.952;2023-09-19T09:58:21;18.60;99.90
67974;DHT22;54756;51.140;6.952;2023-09-19T10:00:25;18.60;99.90
67974;DHT22;54756;51.140;6.952;2023-09-19T10:02:35;18.60;99.90
67974;DHT22;54756;51.140;6.952;2023-09-19T10:04:40;18.60;99.90
67974;DHT22;54756;51.140;6.952;2023-09-19T10:06:52;18.70;99.90
67974;DHT22;54756;51.140;6.952;2023-09-19T10:09:05;18.60;99.90
67974;DHT22;54756;51.140;6.952;2023-09-19T10:11:16;18.70;99.90
67974;DHT22;54756;51.140;6.952;2023-09-19T10:13:17;18.70;99.90
67974;DHT22;54756;51.140;6.952;2023-09-19T10:15:24;18.70;99.90
67974;DHT22;54756;51.140;6.952;2023-09-19T10:17:28;18.70;99.90
67974;DHT22;54756;51.140;6.952;2023-09-19T10:19:37;18.70;99.90
67974;DHT22;54756;51.140;6.952;2023-09-19T10:21:37;18.70;99.90
67974;DHT22;54756;51.140;6.952;2023-09-19T10:23:40;18.70;99.90
67974;DHT22;54756;51.140;6.952;2023-09-19T10:25:44;18.70;99.90
67974;DHT22;54756;51.140;6.952;2023-09-19T10:27:49;18.70;99.90
67974;DHT22;54756;51.140;6.952;2023-09-19T10:29:51;18.70;99.90
67974;DHT22;54756;51.140;6.952;2023-09-19T10:31:55;18.80;99.90
67974;DHT22;54756;51.140;6.952;2023-09-19T10:33:58;18.80;99.90
67974;DHT22;54756;51.140;6.952;2023-09-19T10:36:00;18.80;99.90
67974;DHT22;54756;51.140;6.952;2023-09-19T10:38:01;18.80;99.90
67974;DHT22;54756;51.140;6.952;2023-09-19T10:40:04;18.80;99.90
67974;DHT22;54756;51.140;6.952;2023-09-19T10:42:11;18.80;99.90
67974;DHT22;54756;51.140;6.952;2023-09-19T10:44:17;18.80;99.90
67974;DHT22;54756;51.140;6.952;2023-09-19T10:46:19;18.80;99.90
67974;DHT22;54756;51.140;6.952;2023-09-19T10:48:20;18.90;99.90
67974;DHT22;54756;51.140;6.952;2023-09-19T10:50:28;18.90;99.90
67974;DHT22;54756;51.140;6.952;2023-09-19T10:52:32;18.90;99.90
67974;DHT22;54756;51.140;6.952;2023-09-19T10:54:35;18.90;99.90
67974;DHT22;54756;51.140;6.952;2023-09-19T10:56:44;19.00;99.90
67974;DHT22;54756;51.140;6.952;2023-09-19T10:58:49;19.00;99.90
67974;DHT22;54756;51.140;6.952;2023-09-19T11:00:54;19.00;99.90
67974;DHT22;54756;51.140;6.952;2023-09-19T11:05:12;19.00;99.90
67974;DHT22;54756;51.140;6.952;2023-09-19T11:07:14;19.00;99.90
67974;DHT22;54756;51.140;6.952;2023-09-19T11:09:15;19.00;99.90
67974;DHT22;54756;51.140;6.952;2023-09-19T11:11:41;19.00;99.90
67974;DHT22;54756;51.140;6.952;2023-09-19T11:13:43;19.00;99.90
67974;DHT22;54756;51.140;6.952;2023-09-19T11:18:00;19.10;99.90
67974;DHT22;54756;51.140;6.952;2023-09-19T11:22:13;19.10;99.90
67974;DHT22;54756;51.140;6.952;2023-09-19T11:24:27;19.10;99.90
67974;DHT22;54756;51.140;6.952;2023-09-19T11:26:44;19.20;99.90
67974;DHT22;54756;51.140;6.952;2023-09-19T11:28:48;19.20;99.90
67974;DHT22;54756;51.140;6.952;2023-09-19T11:31:42;19.20;99.90
67974;DHT22;54756;51.140;6.952;2023-09-19T11:33:44;19.30;99.90
67974;DHT22;54756;51.140;6.952;2023-09-19T11:36:05;19.30;99.90
67974;DHT22;54756;51.140;6.952;2023-09-19T11:38:06;19.30;99.90
67974;DHT22;54756;51.140;6.952;2023-09-19T11:40:08;19.40;99.90
67974;DHT22;54756;51.140;6.952;2023-09-19T11:42:41;19.40;99.90
67974;DHT22;54756;51.140;6.952;2023-09-19T11:44:42;19.40;99.90
67974;DHT22;54756;51.140;6.952;2023-09-19T11:48:55;19.50;99.90
67974;DHT22;54756;51.140;6.952;2023-09-19T11:51:15;19.50;99.90
67974;DHT22;54756;51.140;6.952;2023-09-19T11:53:21;19.50;99.90
67974;DHT22;54756;51.140;6.952;2023-09-19T11:55:22;19.50;99.90
67974;DHT22;54756;51.140;6.952;2023-09-19T11:57:23;19.50;99.90
67974;DHT22;54756;51.140;6.952;2023-09-19T11:59:31;19.50;99.90
67974;DHT22;54756;51.140;6.952;2023-09-19T12:01:34;19.50;99.90
67974;DHT22;54756;51.140;6.952;2023-09-19T12:03:36;19.50;99.90
67974;DHT22;54756;51.140;6.952;2023-09-19T12:05:42;19.50;99.90
67974;DHT22;54756;51.140;6.952;2023-09-19T12:07:43;19.60;99.90
67974;DHT22;54756;51.140;6.952;2023-09-19T12:09:51;19.60;99.90
67974;DHT22;54756;51.140;6.952;2023-09-19T12:12:02;19.70;99.90
67974;DHT22;54756;51.140;6.952;2023-09-19T12:14:03;19.70;99.90
67974;DHT22;54756;51.140;6.952;2023-09-19T12:16:14;19.80;99.90
67974;DHT22;54756;51.140;6.952;2023-09-19T12:20:44;19.90;99.90
67974;DHT22;54756;51.140;6.952;2023-09-19T12:22:47;19.90;99.90
67974;DHT22;54756;51.140;6.952;2023-09-19T12:24:50;20.00;99.90
67974;DHT22;54756;51.140;6.952;2023-09-19T12:26:51;20.00;99.90
67974;DHT22;54756;51.140;6.952;2023-09-19T12:28:52;20.00;99.90
67974;DHT22;54756;51.140;6.952;2023-09-19T12:30:55;20.00;99.90
67974;DHT22;54756;51.140;6.952;2023-09-19T12:32:55;20.10;99.90
67974;DHT22;54756;51.140;6.952;2023-09-19T12:34:58;20.10;99.90
67974;DHT22;54756;51.140;6.952;2023-09-19T12:37:13;20.20;99.90
67974;DHT22;54756;51.140;6.952;2023-09-19T12:39:24;20.30;99.90
67974;DHT22;54756;51.140;6.952;2023-09-19T12:41:26;20.30;99.90
67974;DHT22;54756;51.140;6.952;2023-09-19T12:43:29;20.30;99.90
67974;DHT22;54756;51.140;6.952;2023-09-19T12:45:33;20.40;99.90
67974;DHT22;54756;51.140;6.952;2023-09-19T12:47:35;20.40;99.90
67974;DHT22;54756;51.140;6.952;2023-09-19T12:49:36;20.50;99.90
67974;DHT22;54756;51.140;6.952;2023-09-19T12:51:36;20.50;99.90
67974;DHT22;54756;51.140;6.952;2023-09-19T12:53:42;20.60;99.90
67974;DHT22;54756;51.140;6.952;2023-09-19T12:55:44;20.70;99.90
67974;DHT22;54756;51.140;6.952;2023-09-19T12:58:16;20.70;99.90
67974;DHT22;54756;51.140;6.952;2023-09-19T13:00:15;20.80;99.90
67974;DHT22;54756;51.140;6.952;2023-09-19T13:02:17;20.80;99.90
67974;DHT22;54756;51.140;6.952;2023-09-19T13:04:21;20.90;99.90
67974;DHT22;54756;51.140;6.952;2023-09-19T13:06:36;20.90;99.90
67974;DHT22;54756;51.140;6.952;2023-09-19T13:08:43;20.90;99.90
67974;DHT22;54756;51.140;6.952;2023-09-19T13:11:09;21.00;99.90
67974;DHT22;54756;51.140;6.952;2023-09-19T13:13:23;21.10;99.90
67974;DHT22;54756;51.140;6.952;2023-09-19T13:15:28;21.10;99.90
67974;DHT22;54756;51.140;6.952;2023-09-19T13:17:46;21.20;99.90
67974;DHT22;54756;51.140;6.952;2023-09-19T13:19:50;21.20;99.90